Time;durP1;ratioP1;P1;durP2;ratioP2;P2;SDS_P1;SDS_P2;PMS_P1;PMS_P2;Temp;Humidity;BMP_temperature;BMP_pressure;BME280_temperature;BME280_humidity;BME280_pressure;Samples;Min_cycle;Max_cycle;Signal;HPM_P1;HPM_P2
2021/10/14 00:00:45;;;;;;;2.40;2.30;;;16.20;92.00;;;;;;4175993;28;20474;-51
2021/10/14 00:03:07;;;;;;;2.17;2.05;;;16.20;92.00;;;;;;4192129;28;20040;-52
2021/10/14 00:05:31;;;;;;;2.67;2.50;;;16.20;92.00;;;;;;4192292;28;20055;-52
2021/10/14 00:07:53;;;;;;;2.35;2.25;;;16.20;92.10;;;;;;4209169;28;20077;-51
2021/10/14 00:10:16;;;;;;;2.30;2.20;;;16.20;92.00;;;;;;4209402;28;20108;-50
2021/10/14 00:12:38;;;;;;;2.15;2.05;;;16.20;92.10;;;;;;4209182;28;20052;-51
2021/10/14 00:15:00;;;;;;;2.03;1.92;;;16.20;92.10;;;;;;4205660;28;20122;-48
2021/10/14 00:17:22;;;;;;;2.92;2.17;;;16.20;92.10;;;;;;4209348;28;20040;-49
2021/10/14 00:19:45;;;;;;;2.83;1.80;;;16.20;92.10;;;;;;4209189;28;20417;-48
2021/10/14 00:22:08;;;;;;;2.05;1.88;;;16.20;92.10;;;;;;4189235;28;20049;-50
2021/10/14 00:24:30;;;;;;;1.92;1.77;;;16.10;92.10;;;;;;4190946;28;20048;-51
2021/10/14 00:26:52;;;;;;;2.00;1.90;;;16.20;92.50;;;;;;4209038;28;20047;-50
2021/10/14 00:29:14;;;;;;;2.63;1.65;;;16.20;92.10;;;;;;4212199;27;20112;-51
2021/10/14 00:31:36;;;;;;;1.80;1.70;;;16.20;92.10;;;;;;4208920;28;20628;-53
2021/10/14 00:33:59;;;;;;;2.30;2.20;;;16.20;92.10;;;;;;4213431;27;20690;-50
2021/10/14 00:36:20;;;;;;;3.40;1.90;;;16.20;92.10;;;;;;4225597;27;20051;-50
2021/10/14 00:38:44;;;;;;;2.03;1.90;;;16.20;92.10;;;;;;4225556;27;20092;-54
2021/10/14 00:41:06;;;;;;;3.53;2.00;;;16.20;92.50;;;;;;4221369;27;20479;-52
2021/10/14 00:43:28;;;;;;;2.63;2.17;;;16.20;92.10;;;;;;4208739;28;20059;-52
2021/10/14 00:45:50;;;;;;;3.25;2.00;;;16.20;92.10;;;;;;4208551;28;20055;-53
2021/10/14 00:48:13;;;;;;;2.25;1.88;;;16.20;92.10;;;;;;4207541;28;20055;-51
2021/10/14 00:50:35;;;;;;;2.65;1.88;;;16.20;92.10;;;;;;4208557;28;20156;-54
2021/10/14 00:52:57;;;;;;;4.13;2.13;;;16.20;92.10;;;;;;4208152;28;20051;-53
2021/10/14 00:55:23;;;;;;;1.80;1.50;;;16.10;92.10;;;;;;4213983;27;20059;-53
2021/10/14 00:57:46;;;;;;;2.47;1.52;;;16.20;92.10;;;;;;4225596;27;20071;-54
2021/10/14 01:00:09;;;;;;;2.08;1.52;;;16.20;92.10;;;;;;4224957;27;20040;-55
2021/10/14 01:02:31;;;;;;;4.40;1.52;;;16.20;92.20;;;;;;4225667;27;20413;-54
2021/10/14 01:04:55;;;;;;;5.10;1.40;;;16.20;92.10;;;;;;4208777;28;20148;-53
2021/10/14 01:07:17;;;;;;;4.32;1.45;;;16.20;92.50;;;;;;4208158;28;20058;-54
2021/10/14 01:09:40;;;;;;;2.08;1.20;;;16.20;92.10;;;;;;4208559;28;20418;-52
2021/10/14 01:12:05;;;;;;;4.53;1.23;;;16.10;92.20;;;;;;4208508;28;20141;-50
2021/10/14 01:14:27;;;;;;;2.72;1.20;;;16.10;92.20;;;;;;4221952;27;20036;-54
2021/10/14 01:16:49;;;;;;;3.15;1.20;;;16.10;92.20;;;;;;4225077;27;20572;-52
2021/10/14 01:19:14;;;;;;;3.08;1.35;;;16.10;92.20;;;;;;4225251;27;20063;-51
2021/10/14 01:21:38;;;;;;;3.90;1.55;;;16.20;92.30;;;;;;4222365;27;20482;-53
2021/10/14 01:24:00;;;;;;;2.22;1.20;;;16.10;92.30;;;;;;4224517;27;20146;-53
2021/10/14 01:26:22;;;;;;;4.22;1.65;;;16.10;92.60;;;;;;4225002;27;20509;-52
2021/10/14 01:28:45;;;;;;;2.53;1.30;;;16.10;92.20;;;;;;4224526;27;20118;-54
2021/10/14 01:31:07;;;;;;;5.55;1.85;;;16.10;92.20;;;;;;4224956;27;20085;-52
2021/10/14 01:33:29;;;;;;;1.75;1.48;;;16.10;92.20;;;;;;4216080;27;20280;-53
2021/10/14 01:35:51;;;;;;;3.88;1.90;;;16.10;92.20;;;;;;4207777;28;20048;-52
2021/10/14 01:38:15;;;;;;;1.98;1.25;;;16.10;92.20;;;;;;4208246;28;20101;-52
2021/10/14 01:40:36;;;;;;;2.40;1.33;;;16.10;92.20;;;;;;4191102;28;20135;-51
2021/10/14 01:42:58;;;;;;;1.98;1.30;;;16.10;92.20;;;;;;4195082;28;20051;-52
2021/10/14 01:45:21;;;;;;;3.50;1.30;;;16.10;92.20;;;;;;4224880;27;20512;-53
2021/10/14 01:47:43;;;;;;;2.00;1.30;;;16.10;92.20;;;;;;4222430;27;20052;-53
2021/10/14 01:50:06;;;;;;;2.67;1.63;;;16.10;92.20;;;;;;4208233;28;20501;-51
2021/10/14 01:52:28;;;;;;;3.28;1.52;;;16.10;92.20;;;;;;4208749;28;20056;-52
2021/10/14 01:54:51;;;;;;;2.90;1.63;;;16.10;92.20;;;;;;4223664;27;20047;-52
2021/10/14 01:57:13;;;;;;;2.03;1.35;;;16.10;92.20;;;;;;4191231;28;20053;-50
2021/10/14 01:59:36;;;;;;;3.03;1.77;;;16.10;92.20;;;;;;4191747;28;20454;-53
2021/10/14 02:01:57;;;;;;;1.63;1.15;;;16.10;92.30;;;;;;4193949;28;20055;-52
2021/10/14 02:04:20;;;;;;;2.97;1.60;;;16.10;92.60;;;;;;4194221;28;20103;-49
2021/10/14 02:06:42;;;;;;;1.77;1.30;;;16.10;92.20;;;;;;4193454;28;20048;-51
2021/10/14 02:09:04;;;;;;;2.97;1.40;;;16.10;92.20;;;;;;4194336;28;20048;-50
2021/10/14 02:11:27;;;;;;;2.78;1.30;;;16.10;92.20;;;;;;4194424;28;20415;-51
2021/10/14 02:13:50;;;;;;;2.38;1.20;;;16.10;92.60;;;;;;4210262;28;20098;-50
2021/10/14 02:16:13;;;;;;;3.28;1.27;;;16.10;92.20;;;;;;4211027;28;20078;-53
2021/10/14 02:18:35;;;;;;;1.88;1.17;;;16.10;92.20;;;;;;4211107;28;20124;-51
2021/10/14 02:20:57;;;;;;;3.38;1.73;;;16.10;92.20;;;;;;4223380;27;20056;-52
2021/10/14 02:23:19;;;;;;;1.92;1.35;;;16.10;92.60;;;;;;4215676;27;20052;-53
2021/10/14 02:25:41;;;;;;;1.80;1.45;;;16.10;92.20;;;;;;4211084;28;20044;-53
2021/10/14 02:28:05;;;;;;;5.20;1.77;;;16.10;92.20;;;;;;4210881;28;20098;-52
2021/10/14 02:30:27;;;;;;;2.25;1.50;;;16.10;92.20;;;;;;4210768;28;20233;-54
2021/10/14 02:32:49;;;;;;;1.58;1.40;;;16.10;92.30;;;;;;4220489;27;20048;-52
2021/10/14 02:35:11;;;;;;;5.20;1.30;;;16.10;92.20;;;;;;4227560;27;20043;-53
2021/10/14 02:37:34;;;;;;;2.47;1.52;;;16.10;92.30;;;;;;4193969;28;20059;-53
2021/10/14 02:39:56;;;;;;;1.67;1.58;;;16.10;92.30;;;;;;4194049;28;20052;-49
2021/10/14 02:42:18;;;;;;;1.50;1.17;;;16.10;92.30;;;;;;4199485;28;20483;-54
2021/10/14 02:44:42;;;;;;;4.30;1.48;;;16.10;92.20;;;;;;4210812;28;20135;-50
2021/10/14 02:47:04;;;;;;;2.47;1.30;;;16.10;92.20;;;;;;4210598;28;20093;-52
2021/10/14 02:49:26;;;;;;;1.80;1.17;;;16.10;92.20;;;;;;4210373;27;20055;-49
2021/10/14 02:51:48;;;;;;;3.78;1.55;;;16.10;92.20;;;;;;4223463;27;20456;-50
2021/10/14 02:54:10;;;;;;;2.58;1.58;;;16.10;92.20;;;;;;4210325;28;20809;-54
2021/10/14 02:56:32;;;;;;;2.30;1.20;;;16.10;92.20;;;;;;4210410;28;20058;-50
2021/10/14 02:58:54;;;;;;;3.28;1.30;;;16.10;92.20;;;;;;4210283;28;20512;-51
2021/10/14 03:01:18;;;;;;;3.42;1.77;;;16.10;92.20;;;;;;4210383;28;20050;-48
2021/10/14 03:03:40;;;;;;;2.67;1.30;;;16.10;92.30;;;;;;4210341;28;20048;-52
2021/10/14 03:06:02;;;;;;;3.40;1.35;;;16.10;92.30;;;;;;4209904;28;20048;-53
2021/10/14 03:08:24;;;;;;;4.20;1.25;;;16.10;92.30;;;;;;4209885;28;20554;-52
2021/10/14 03:10:46;;;;;;;4.55;1.40;;;16.10;92.30;;;;;;4209732;28;20530;-49
2021/10/14 03:13:09;;;;;;;2.50;1.30;;;16.10;92.30;;;;;;4193624;28;20078;-54
2021/10/14 03:15:31;;;;;;;2.25;1.60;;;16.10;92.40;;;;;;4193603;28;20529;-50
2021/10/14 03:17:55;;;;;;;2.70;1.45;;;16.10;92.40;;;;;;4192238;28;20048;-52
2021/10/14 03:20:17;;;;;;;6.93;1.27;;;16.10;92.40;;;;;;4193351;28;20044;-51
2021/10/14 03:22:39;;;;;;;6.35;1.70;;;16.10;92.40;;;;;;4205951;28;20055;-50
2021/10/14 03:25:01;;;;;;;2.58;1.42;;;16.10;92.40;;;;;;4209963;28;20182;-52
2021/10/14 03:27:23;;;;;;;2.47;1.58;;;16.10;92.40;;;;;;4209708;28;20055;-49
2021/10/14 03:29:45;;;;;;;1.85;1.48;;;16.00;92.40;;;;;;4209123;28;20551;-53
2021/10/14 03:32:08;;;;;;;2.05;1.40;;;16.10;92.40;;;;;;4209976;28;20040;-51
2021/10/14 03:34:31;;;;;;;1.48;1.27;;;16.10;92.40;;;;;;4209701;28;20418;-49
2021/10/14 03:36:53;;;;;;;3.20;1.73;;;16.10;92.40;;;;;;4209857;28;20410;-51
2021/10/14 03:39:15;;;;;;;3.60;1.65;;;16.10;92.40;;;;;;4209743;28;20055;-50
2021/10/14 03:41:37;;;;;;;3.22;1.60;;;16.00;92.40;;;;;;4224604;27;20070;-51
2021/10/14 03:43:59;;;;;;;4.82;1.30;;;16.10;92.40;;;;;;4224930;27;20058;-52
2021/10/14 03:46:21;;;;;;;2.88;1.50;;;16.10;92.40;;;;;;4210855;28;20056;-51
2021/10/14 03:48:43;;;;;;;2.03;1.40;;;16.10;92.40;;;;;;4209845;28;20048;-48
2021/10/14 03:51:07;;;;;;;1.70;1.60;;;16.00;92.40;;;;;;4224723;27;20180;-53
2021/10/14 03:53:29;;;;;;;5.63;1.63;;;16.00;92.50;;;;;;4226628;27;20068;-51
2021/10/14 03:55:51;;;;;;;2.83;1.42;;;16.00;92.50;;;;;;4226342;27;20458;-53
2021/10/14 03:58:13;;;;;;;2.80;1.63;;;16.00;92.80;;;;;;4226195;27;20412;-53
2021/10/14 04:00:36;;;;;;;3.03;1.58;;;16.00;92.50;;;;;;4215653;28;20043;-51
2021/10/14 04:02:58;;;;;;;1.80;1.48;;;16.00;92.90;;;;;;4209466;28;20535;-53
2021/10/14 04:05:20;;;;;;;6.70;1.80;;;16.00;92.50;;;;;;4209205;28;20059;-53
2021/10/14 04:07:43;;;;;;;1.40;1.30;;;16.00;92.50;;;;;;4209403;28;20052;-53
2021/10/14 04:10:07;;;;;;;2.45;1.45;;;16.00;92.50;;;;;;4218311;27;20150;-53
2021/10/14 04:12:29;;;;;;;3.00;1.90;;;16.00;92.50;;;;;;4226067;27;20055;-50
2021/10/14 04:14:51;;;;;;;1.58;1.40;;;16.00;92.90;;;;;;4225787;27;20096;-54
2021/10/14 04:17:13;;;;;;;4.60;2.00;;;16.00;92.50;;;;;;4225344;27;20063;-51
2021/10/14 04:19:35;;;;;;;1.70;1.60;;;16.00;92.50;;;;;;4225662;27;20120;-52
2021/10/14 04:21:58;;;;;;;3.92;1.45;;;16.00;92.50;;;;;;4225609;27;20047;-52
2021/10/14 04:24:21;;;;;;;1.52;1.42;;;16.00;92.50;;;;;;4223923;27;20086;-52
2021/10/14 04:26:43;;;;;;;2.88;1.63;;;16.00;92.50;;;;;;4208423;28;20117;-52
2021/10/14 04:29:06;;;;;;;3.13;1.80;;;16.00;92.50;;;;;;4191713;28;20055;-50
2021/10/14 04:31:29;;;;;;;2.38;2.15;;;16.00;92.60;;;;;;4192449;28;20554;-49
2021/10/14 04:33:51;;;;;;;3.03;1.63;;;16.00;92.60;;;;;;4192097;28;20048;-51
2021/10/14 04:36:13;;;;;;;1.98;1.52;;;16.00;92.60;;;;;;4175572;28;20072;-51
2021/10/14 04:38:36;;;;;;;3.47;2.03;;;16.00;92.60;;;;;;4175406;28;20049;-52
2021/10/14 04:40:59;;;;;;;2.10;2.00;;;16.00;92.60;;;;;;4192022;28;20471;-52
2021/10/14 04:43:23;;;;;;;5.55;2.00;;;16.00;92.60;;;;;;4191989;28;20057;-48
2021/10/14 04:45:44;;;;;;;2.53;1.85;;;16.00;92.60;;;;;;4208096;28;20547;-49
2021/10/14 04:48:06;;;;;;;3.25;2.17;;;16.00;92.60;;;;;;4208326;28;20061;-53
2021/10/14 04:50:29;;;;;;;2.58;2.08;;;16.00;92.60;;;;;;4208241;28;20101;-51
2021/10/14 04:52:51;;;;;;;4.28;1.90;;;16.00;92.70;;;;;;4191919;28;20041;-51
2021/10/14 04:55:13;;;;;;;2.95;1.98;;;16.00;92.70;;;;;;4191842;28;20050;-51
2021/10/14 04:57:37;;;;;;;2.35;1.40;;;16.00;92.70;;;;;;4198963;28;20136;-52
2021/10/14 04:59:59;;;;;;;2.05;1.88;;;16.00;92.70;;;;;;4208492;28;20068;-51
2021/10/14 05:02:22;;;;;;;1.85;1.70;;;16.00;92.70;;;;;;4208513;28;20127;-51
2021/10/14 05:04:44;;;;;;;2.47;1.70;;;16.00;92.70;;;;;;4208342;28;20470;-50
2021/10/14 05:07:05;;;;;;;2.55;1.90;;;16.00;92.70;;;;;;4218068;27;20448;-53
2021/10/14 05:09:27;;;;;;;2.47;1.83;;;16.00;92.80;;;;;;4208419;28;20076;-48
2021/10/14 05:11:50;;;;;;;2.33;1.70;;;16.00;92.70;;;;;;4208807;28;20456;-52
2021/10/14 05:14:13;;;;;;;4.28;2.30;;;16.00;92.80;;;;;;4191418;28;20048;-51
2021/10/14 05:16:35;;;;;;;2.80;1.80;;;16.00;92.80;;;;;;4193167;28;20044;-49
2021/10/14 05:18:57;;;;;;;2.50;2.30;;;16.00;92.80;;;;;;4224335;27;20049;-52
2021/10/14 05:21:20;;;;;;;3.30;2.20;;;16.00;92.80;;;;;;4225095;27;20035;-52
2021/10/14 05:23:42;;;;;;;2.47;2.03;;;16.00;92.80;;;;;;4224757;27;20051;-48
2021/10/14 05:26:04;;;;;;;3.88;1.95;;;16.00;92.80;;;;;;4208200;28;20052;-50
2021/10/14 05:28:27;;;;;;;2.47;1.90;;;16.00;92.80;;;;;;4225259;27;20052;-53
2021/10/14 05:30:50;;;;;;;2.88;2.00;;;16.00;92.80;;;;;;4224831;27;20447;-50
2021/10/14 05:33:13;;;;;;;2.38;2.10;;;16.00;92.90;;;;;;4224903;27;20051;-50
2021/10/14 05:35:35;;;;;;;2.83;2.40;;;16.00;92.90;;;;;;4224348;27;20476;-49
2021/10/14 05:37:57;;;;;;;2.40;1.90;;;16.00;92.90;;;;;;4224201;27;20109;-52
2021/10/14 05:40:19;;;;;;;2.95;2.30;;;16.00;92.90;;;;;;4224884;27;20079;-51
2021/10/14 05:42:41;;;;;;;2.55;2.35;;;16.00;92.90;;;;;;4224644;27;20532;-52
2021/10/14 05:45:03;;;;;;;1.98;1.88;;;16.00;92.90;;;;;;4224950;27;20047;-52
2021/10/14 05:47:27;;;;;;;5.22;2.45;;;16.00;92.90;;;;;;4210547;27;20052;-53
2021/10/14 05:49:49;;;;;;;2.58;2.38;;;16.00;93.00;;;;;;4208131;28;20051;-52
2021/10/14 05:52:11;;;;;;;2.58;2.47;;;16.00;93.00;;;;;;4208338;28;20498;-53
2021/10/14 05:54:33;;;;;;;2.35;2.15;;;16.00;93.40;;;;;;4207563;28;20048;-48
2021/10/14 05:56:56;;;;;;;2.83;2.38;;;16.00;93.00;;;;;;4204241;28;20067;-48
2021/10/14 05:59:18;;;;;;;4.40;2.25;;;16.00;93.00;;;;;;4207772;28;20093;-51
2021/10/14 06:01:40;;;;;;;15.07;2.42;;;16.00;93.10;;;;;;4207607;28;20071;-51
2021/10/14 06:04:04;;;;;;;4.85;2.45;;;16.10;93.20;;;;;;4207961;28;20055;-50
2021/10/14 06:06:26;;;;;;;4.80;2.80;;;16.10;93.10;;;;;;4206228;28;20048;-58
2021/10/14 06:08:48;;;;;;;2.60;2.42;;;16.10;93.00;;;;;;4206687;28;20044;-58
2021/10/14 06:11:10;;;;;;;5.18;2.30;;;16.10;93.40;;;;;;4203746;28;20098;-57
2021/10/14 06:13:32;;;;;;;3.22;2.75;;;16.10;93.00;;;;;;4207098;28;20055;-58
2021/10/14 06:15:54;;;;;;;2.60;2.50;;;16.10;92.90;;;;;;4207235;28;20093;-58
2021/10/14 06:18:16;;;;;;;3.10;2.80;;;16.10;92.90;;;;;;4205387;28;20072;-58
2021/10/14 06:20:40;;;;;;;3.95;2.80;;;16.10;92.90;;;;;;4207614;28;20070;-58
2021/10/14 06:23:02;;;;;;;3.78;3.17;;;16.10;92.90;;;;;;4207765;28;20518;-58
2021/10/14 06:25:25;;;;;;;4.20;2.25;;;16.10;92.90;;;;;;4215754;27;20498;-57
2021/10/14 06:27:47;;;;;;;4.95;2.70;;;16.10;92.80;;;;;;4207688;28;20055;-58
2021/10/14 06:30:09;;;;;;;5.25;3.47;;;16.00;92.80;;;;;;4206703;28;20048;-57
2021/10/14 06:32:32;;;;;;;5.53;3.25;;;16.00;92.80;;;;;;4207541;28;20055;-58
2021/10/14 06:34:54;;;;;;;3.35;3.05;;;16.10;92.80;;;;;;4207645;28;20052;-57
2021/10/14 06:37:17;;;;;;;2.90;2.70;;;16.10;92.80;;;;;;4207201;28;20513;-58
2021/10/14 06:39:39;;;;;;;5.82;3.05;;;16.10;92.90;;;;;;4207679;28;20807;-57
2021/10/14 06:42:01;;;;;;;5.22;3.63;;;16.10;92.90;;;;;;4211241;28;20410;-57
2021/10/14 06:44:24;;;;;;;3.88;3.58;;;16.20;92.70;;;;;;4206159;28;20114;-57
2021/10/14 06:46:46;;;;;;;5.50;3.60;;;16.30;92.50;;;;;;4208630;28;20090;-58
2021/10/14 06:49:08;;;;;;;3.92;3.40;;;16.30;92.30;;;;;;4210541;28;20520;-59
2021/10/14 06:51:30;;;;;;;5.38;3.88;;;16.40;92.20;;;;;;4210103;28;20047;-57
2021/10/14 06:53:53;;;;;;;4.55;3.60;;;16.50;92.00;;;;;;4210029;28;20055;-59
2021/10/14 06:56:15;;;;;;;3.85;3.22;;;16.50;91.90;;;;;;4210377;28;20056;-58
2021/10/14 06:58:37;;;;;;;5.18;3.00;;;16.60;91.60;;;;;;4210442;28;20076;-59
2021/10/14 07:00:59;;;;;;;4.25;3.85;;;16.70;91.50;;;;;;4210135;28;20052;-58
2021/10/14 07:03:22;;;;;;;4.05;3.63;;;16.80;91.30;;;;;;4210462;28;20482;-58
2021/10/14 07:05:44;;;;;;;4.57;3.85;;;16.80;91.10;;;;;;4210524;28;20249;-58
2021/10/14 07:08:07;;;;;;;3.40;3.13;;;17.00;90.90;;;;;;4210428;28;20044;-58
2021/10/14 07:10:30;;;;;;;5.38;4.28;;;17.00;90.70;;;;;;4210205;28;20137;-58
2021/10/14 07:12:52;;;;;;;4.65;3.97;;;17.10;90.50;;;;;;4207057;28;20136;-58
2021/10/14 07:15:15;;;;;;;6.28;3.78;;;17.10;90.40;;;;;;4221243;27;20387;-58
2021/10/14 07:17:37;;;;;;;4.03;3.40;;;17.20;90.20;;;;;;4202993;27;20051;-58
2021/10/14 07:20:00;;;;;;;5.80;3.38;;;17.20;90.10;;;;;;4220878;27;20103;-58
2021/10/14 07:22:22;;;;;;;6.50;3.72;;;17.40;89.80;;;;;;4212893;27;20047;-58
2021/10/14 07:24:44;;;;;;;6.43;4.30;;;17.40;89.50;;;;;;4218118;28;20040;-57
2021/10/14 07:27:08;;;;;;;5.15;3.88;;;17.40;89.30;;;;;;4209817;28;20056;-58
2021/10/14 07:29:30;;;;;;;4.63;4.22;;;17.40;89.10;;;;;;4206795;28;20060;-58
2021/10/14 07:31:54;;;;;;;4.32;3.90;;;17.40;88.90;;;;;;4176547;28;20045;-55
2021/10/14 07:34:16;;;;;;;4.63;4.15;;;17.40;88.80;;;;;;4184756;28;20058;-56
2021/10/14 07:36:38;;;;;;;5.65;4.28;;;17.30;88.70;;;;;;4216388;27;20043;-56
2021/10/14 07:39:01;;;;;;;4.35;3.95;;;17.30;88.70;;;;;;4221333;27;20050;-57
2021/10/14 07:41:23;;;;;;;4.32;3.92;;;17.30;88.70;;;;;;4215633;27;20043;-57
2021/10/14 07:43:47;;;;;;;5.82;4.20;;;17.30;88.80;;;;;;4219304;27;20456;-57
2021/10/14 07:46:09;;;;;;;4.55;3.85;;;17.20;88.70;;;;;;4209231;28;20093;-58
2021/10/14 07:48:31;;;;;;;5.22;4.03;;;17.20;88.80;;;;;;4219133;27;20058;-58
2021/10/14 07:50:54;;;;;;;5.40;4.22;;;17.20;88.90;;;;;;4225946;27;20047;-57
2021/10/14 07:53:17;;;;;;;4.88;4.32;;;17.10;89.00;;;;;;4205983;28;20089;-56
2021/10/14 07:55:39;;;;;;;4.13;3.83;;;17.10;89.30;;;;;;4176175;28;20044;-57
2021/10/14 07:58:01;;;;;;;5.80;4.57;;;17.10;89.50;;;;;;4199000;28;20067;-58
2021/10/14 08:00:24;;;;;;;3.97;3.45;;;17.10;89.70;;;;;;4216028;27;20067;-57
2021/10/14 08:02:49;;;;;;;4.95;4.38;;;17.00;89.60;;;;;;4216138;27;20398;-57
2021/10/14 08:05:12;;;;;;;5.50;4.93;;;17.00;89.80;;;;;;4211067;27;20052;-59
2021/10/14 08:07:34;;;;;;;5.90;3.97;;;17.00;89.90;;;;;;4219214;27;20047;-59
2021/10/14 08:09:56;;;;;;;5.65;3.75;;;16.90;90.00;;;;;;4208901;28;20047;-59
2021/10/14 08:12:18;;;;;;;5.40;4.90;;;16.90;90.00;;;;;;4213743;27;20047;-59
2021/10/14 08:14:40;;;;;;;6.30;4.10;;;16.90;90.10;;;;;;4203341;28;20533;-57
2021/10/14 08:17:04;;;;;;;9.20;5.28;;;16.90;90.20;;;;;;4207954;28;20485;-57
2021/10/14 08:19:26;;;;;;;4.68;4.38;;;16.90;90.30;;;;;;4201923;28;20098;-58
2021/10/14 08:21:47;;;;;;;5.00;4.53;;;16.90;90.30;;;;;;4217717;27;20059;-57
2021/10/14 08:24:10;;;;;;;6.82;4.20;;;17.00;90.10;;;;;;4209227;28;20071;-57
2021/10/14 08:26:32;;;;;;;5.13;4.65;;;17.10;90.00;;;;;;4214002;27;20058;-58
2021/10/14 08:28:54;;;;;;;5.05;4.57;;;17.10;89.90;;;;;;4212466;27;20054;-58
2021/10/14 08:31:17;;;;;;;4.47;4.18;;;17.10;89.70;;;;;;4212437;27;20059;-57
2021/10/14 08:33:40;;;;;;;4.72;4.30;;;17.20;90.20;;;;;;4225541;27;20124;-59
2021/10/14 08:36:03;;;;;;;4.25;3.88;;;17.10;89.40;;;;;;4223498;27;20058;-58
2021/10/14 08:38:25;;;;;;;4.05;3.75;;;17.10;89.40;;;;;;4215999;27;20411;-58
2021/10/14 08:40:48;;;;;;;5.20;3.60;;;17.20;89.40;;;;;;4208084;28;20067;-58
2021/10/14 08:43:13;;;;;;;3.90;3.40;;;17.10;89.00;;;;;;4218757;27;20511;-58
2021/10/14 08:45:37;;;;;;;5.97;4.00;;;17.10;89.30;;;;;;4220207;27;20481;-57
2021/10/14 08:47:59;;;;;;;5.38;4.10;;;17.10;89.50;;;;;;4212814;27;20393;-57
2021/10/14 08:50:23;;;;;;;4.65;3.22;;;17.10;89.50;;;;;;4225811;27;20051;-58
2021/10/14 08:52:44;;;;;;;4.40;3.95;;;17.10;89.30;;;;;;4215158;27;20128;-58
2021/10/14 08:55:07;;;;;;;5.22;3.53;;;17.00;89.00;;;;;;4191303;28;20059;-56
2021/10/14 08:57:29;;;;;;;3.78;3.25;;;17.10;89.70;;;;;;4192368;28;20596;-58
2021/10/14 08:59:52;;;;;;;4.00;3.00;;;17.00;89.60;;;;;;4201307;27;20111;-58
2021/10/14 09:02:16;;;;;;;5.65;3.20;;;17.00;89.70;;;;;;4217329;28;20237;-58
2021/10/14 09:04:40;;;;;;;3.00;2.70;;;17.00;89.50;;;;;;4208050;28;20520;-58
2021/10/14 09:07:10;;;;;;;2.65;2.45;;;17.00;89.50;;;;;;4215255;27;20121;-57
2021/10/14 09:09:38;;;;;;;4.32;2.47;;;17.00;89.20;;;;;;4208944;27;20481;-57
2021/10/14 09:12:04;;;;;;;3.20;2.70;;;17.10;89.40;;;;;;4224645;27;20052;-57
2021/10/14 09:14:26;;;;;;;3.58;3.08;;;17.10;89.10;;;;;;4223855;27;20464;-58
2021/10/14 09:16:49;;;;;;;3.03;2.80;;;17.10;89.20;;;;;;4224108;27;20120;-58
2021/10/14 09:19:16;;;;;;;3.80;2.80;;;17.10;89.60;;;;;;4223317;27;20134;-58
2021/10/14 09:21:40;;;;;;;3.17;2.60;;;17.10;88.80;;;;;;4225096;27;20055;-59
2021/10/14 09:24:30;;;;;;;2.80;2.60;;;17.10;89.00;;;;;;4225136;27;20048;-59
2021/10/14 09:26:53;;;;;;;2.80;2.60;;;17.10;88.70;;;;;;4191233;28;20048;-58
2021/10/14 09:29:17;;;;;;;2.38;2.28;;;17.10;88.70;;;;;;4212934;27;20504;-59
2021/10/14 09:31:52;;;;;;;2.90;2.70;;;17.10;89.00;;;;;;4219335;27;20090;-58
2021/10/14 09:34:33;;;;;;;3.30;2.60;;;17.10;88.20;;;;;;4208072;28;20050;-59
2021/10/14 09:36:55;;;;;;;2.55;2.33;;;17.10;88.10;;;;;;4206262;28;20540;-58
2021/10/14 09:39:19;;;;;;;3.38;2.40;;;17.00;88.20;;;;;;4207601;28;20036;-58
2021/10/14 09:41:43;;;;;;;4.10;2.35;;;17.00;87.90;;;;;;4207065;28;20927;-59
2021/10/14 09:44:23;;;;;;;4.20;2.47;;;17.00;87.80;;;;;;4207548;28;20052;-59
2021/10/14 09:46:47;;;;;;;2.70;2.50;;;17.00;88.00;;;;;;4208017;28;20052;-59
2021/10/14 09:49:11;;;;;;;3.03;2.83;;;17.00;88.00;;;;;;4207622;28;20068;-57
2021/10/14 09:51:33;;;;;;;2.95;2.22;;;17.00;87.90;;;;;;4207087;28;20119;-59
2021/10/14 09:53:55;;;;;;;2.08;1.92;;;17.00;87.80;;;;;;4200463;28;20182;-59
2021/10/14 09:56:20;;;;;;;2.53;2.30;;;16.90;87.90;;;;;;4207266;28;20040;-59
2021/10/14 09:58:42;;;;;;;3.78;2.72;;;16.90;87.90;;;;;;4207720;28;20084;-58
2021/10/14 10:01:05;;;;;;;2.75;2.50;;;16.90;87.90;;;;;;4207312;28;20071;-58
2021/10/14 10:03:27;;;;;;;2.45;2.25;;;16.90;87.80;;;;;;4207580;28;20072;-58
2021/10/14 10:05:52;;;;;;;2.42;2.17;;;16.90;87.80;;;;;;4207689;28;20052;-57
2021/10/14 10:08:22;;;;;;;5.82;2.63;;;16.90;87.40;;;;;;4204004;28;20129;-59
2021/10/14 10:10:45;;;;;;;3.85;3.00;;;16.90;87.50;;;;;;4207911;28;20048;-59
2021/10/14 10:13:11;;;;;;;3.45;2.63;;;16.80;87.70;;;;;;4206883;28;20097;-59
2021/10/14 10:15:41;;;;;;;3.65;2.65;;;16.80;87.70;;;;;;4205426;28;20056;-59
2021/10/14 10:18:04;;;;;;;3.47;3.17;;;16.80;87.60;;;;;;4207748;28;20048;-59
2021/10/14 10:20:39;;;;;;;10.38;2.47;;;16.80;87.50;;;;;;4207706;28;20043;-59
2021/10/14 10:23:01;;;;;;;4.22;2.90;;;16.80;87.60;;;;;;4210487;28;20071;-58
2021/10/14 10:25:41;;;;;;;4.85;3.60;;;16.80;87.70;;;;;;4211262;28;20048;-58
2021/10/14 10:28:06;;;;;;;5.30;3.45;;;16.80;87.30;;;;;;4203462;28;20135;-59
2021/10/14 10:30:53;;;;;;;3.80;3.45;;;16.80;87.10;;;;;;4210649;28;20048;-58
2021/10/14 10:33:53;;;;;;;4.30;3.00;;;16.80;87.00;;;;;;4206253;28;20039;-59
2021/10/14 10:36:45;;;;;;;3.35;3.10;;;16.80;87.10;;;;;;4206840;28;20079;-59
2021/10/14 10:39:07;;;;;;;3.85;3.55;;;16.70;87.20;;;;;;4227031;27;20047;-58
2021/10/14 10:41:29;;;;;;;4.30;3.92;;;16.70;87.20;;;;;;4227641;27;20126;-58
2021/10/14 10:43:59;;;;;;;5.88;3.50;;;16.70;87.00;;;;;;4225690;27;20418;-58
2021/10/14 10:46:28;;;;;;;5.00;3.28;;;16.70;86.90;;;;;;4193563;28;20478;-59
2021/10/14 10:49:17;;;;;;;3.97;3.03;;;16.70;87.00;;;;;;4193004;27;20054;-59
2021/10/14 10:51:40;;;;;;;5.75;3.28;;;16.80;87.00;;;;;;4227043;27;20541;-58
2021/10/14 10:54:02;;;;;;;3.20;2.80;;;16.80;87.80;;;;;;4225799;27;20498;-58
2021/10/14 10:56:29;;;;;;;3.67;3.03;;;16.80;87.20;;;;;;4225440;27;20054;-58
2021/10/14 10:58:51;;;;;;;3.75;2.70;;;16.70;87.20;;;;;;4226963;27;20052;-59
2021/10/14 11:01:15;;;;;;;3.55;2.58;;;16.80;87.30;;;;;;4227254;27;20067;-59
2021/10/14 11:03:39;;;;;;;2.85;2.33;;;16.70;87.40;;;;;;4227271;27;20040;-59
2021/10/14 11:06:02;;;;;;;3.58;2.53;;;16.70;87.50;;;;;;4227258;27;20051;-58
2021/10/14 11:08:26;;;;;;;3.35;2.15;;;16.70;87.10;;;;;;4225341;27;20047;-59
2021/10/14 11:10:52;;;;;;;2.35;2.15;;;16.80;87.60;;;;;;4227117;27;20047;-58
2021/10/14 11:13:14;;;;;;;4.45;1.95;;;16.80;86.80;;;;;;4220398;27;20085;-58
2021/10/14 11:15:47;;;;;;;5.05;1.95;;;16.80;86.80;;;;;;4209587;28;20040;-58
2021/10/14 11:18:09;;;;;;;3.17;2.20;;;16.80;87.10;;;;;;4209967;28;20044;-59
2021/10/14 11:20:34;;;;;;;2.83;2.40;;;16.80;86.90;;;;;;4210410;28;20147;-59
2021/10/14 11:23:03;;;;;;;1.85;1.58;;;16.80;86.80;;;;;;4210078;28;20051;-59
2021/10/14 11:25:25;;;;;;;2.55;1.60;;;16.80;86.70;;;;;;4209597;28;20781;-59
2021/10/14 11:28:02;;;;;;;2.38;2.17;;;16.80;87.10;;;;;;4202312;28;20044;-58
2021/10/14 11:30:25;;;;;;;3.03;1.52;;;16.80;87.00;;;;;;4214784;27;20074;-58
2021/10/14 11:33:11;;;;;;;3.47;1.80;;;16.80;87.20;;;;;;4217070;27;20083;-57
2021/10/14 11:35:59;;;;;;;1.90;1.33;;;16.80;87.50;;;;;;4209515;28;20565;-59
2021/10/14 11:38:22;;;;;;;2.03;1.40;;;16.80;86.80;;;;;;4209243;28;20447;-58
2021/10/14 11:41:03;;;;;;;1.92;1.40;;;16.80;87.40;;;;;;4209720;28;20055;-58
2021/10/14 11:43:26;;;;;;;3.22;1.42;;;16.80;87.70;;;;;;4209698;28;20047;-58
2021/10/14 11:45:48;;;;;;;4.20;1.67;;;16.80;87.20;;;;;;4209844;28;20109;-58
2021/10/14 11:48:26;;;;;;;2.50;1.52;;;16.80;87.40;;;;;;4209817;28;20549;-59
2021/10/14 11:51:03;;;;;;;1.80;1.42;;;16.80;87.00;;;;;;4209059;28;20071;-59
2021/10/14 11:53:25;;;;;;;5.43;2.45;;;16.80;86.80;;;;;;4208848;28;20154;-58
2021/10/14 11:55:57;;;;;;;1.83;1.60;;;16.80;87.20;;;;;;4209361;28;20547;-57
2021/10/14 11:58:23;;;;;;;2.78;1.70;;;16.80;86.80;;;;;;4209192;28;20048;-58
2021/10/14 12:00:45;;;;;;;2.55;1.63;;;16.80;86.80;;;;;;4209782;28;20495;-57
2021/10/14 12:03:07;;;;;;;3.67;2.08;;;16.80;86.90;;;;;;4209072;28;20047;-58
2021/10/14 12:05:30;;;;;;;1.77;1.63;;;16.80;86.80;;;;;;4210147;27;20075;-59
2021/10/14 12:07:56;;;;;;;2.00;1.80;;;16.80;86.80;;;;;;4208788;28;20085;-56
2021/10/14 12:10:39;;;;;;;2.92;2.22;;;16.80;86.50;;;;;;4216048;27;20075;-59
2021/10/14 12:13:03;;;;;;;2.03;1.85;;;16.80;86.70;;;;;;4224885;27;20043;-58
2021/10/14 12:15:27;;;;;;;6.35;2.00;;;16.80;87.30;;;;;;4210337;27;20097;-59
2021/10/14 12:17:49;;;;;;;3.20;2.20;;;16.80;86.70;;;;;;4192498;28;20552;-59
2021/10/14 12:20:15;;;;;;;1.85;1.67;;;16.80;86.40;;;;;;4175958;28;20040;-58
2021/10/14 12:22:41;;;;;;;4.78;1.80;;;16.80;86.50;;;;;;4191273;28;20048;-59
2021/10/14 12:25:06;;;;;;;2.40;2.10;;;16.80;86.50;;;;;;4190848;28;20156;-59
2021/10/14 12:27:43;;;;;;;2.00;1.63;;;16.90;86.30;;;;;;4207512;28;20048;-57
2021/10/14 12:30:06;;;;;;;4.80;2.42;;;16.90;86.30;;;;;;4191807;28;20487;-59